sensor_id;sensor_type;location;lat;lon;timestamp;pressure;altitude;pressure_sealevel;temperature;humidity
46129;BME280;31860;45.186;5.790;2024-01-30T00:01:54;100747.88;;;9.30;100.00
46129;BME280;31860;45.186;5.790;2024-01-30T00:04:19;100757.41;;;9.30;100.00
46129;BME280;31860;45.186;5.790;2024-01-30T00:06:45;100753.09;;;9.30;100.00
46129;BME280;31860;45.186;5.790;2024-01-30T00:09:10;100750.31;;;9.26;100.00
46129;BME280;31860;45.186;5.790;2024-01-30T00:11:37;100752.94;;;9.26;100.00
46129;BME280;31860;45.186;5.790;2024-01-30T00:14:03;100747.72;;;9.26;100.00
46129;BME280;31860;45.186;5.790;2024-01-30T00:16:29;100747.69;;;9.24;100.00
46129;BME280;31860;45.186;5.790;2024-01-30T00:18:55;100743.38;;;9.25;100.00
46129;BME280;31860;45.186;5.790;2024-01-30T00:21:21;100749.47;;;9.25;100.00
46129;BME280;31860;45.186;5.790;2024-01-30T00:23:47;100756.41;;;9.25;100.00
46129;BME280;31860;45.186;5.790;2024-01-30T00:26:12;100755.50;;;9.24;100.00
46129;BME280;31860;45.186;5.790;2024-01-30T00:28:40;100765.03;;;9.24;100.00
46129;BME280;31860;45.186;5.790;2024-01-30T00:31:05;100758.81;;;9.19;100.00
46129;BME280;31860;45.186;5.790;2024-01-30T00:33:31;100745.69;;;9.16;100.00
46129;BME280;31860;45.186;5.790;2024-01-30T00:35:56;100753.41;;;9.13;100.00
46129;BME280;31860;45.186;5.790;2024-01-30T00:38:22;100754.25;;;9.12;100.00
46129;BME280;31860;45.186;5.790;2024-01-30T00:40:47;100750.78;;;9.13;100.00
46129;BME280;31860;45.186;5.790;2024-01-30T00:43:13;100754.34;;;9.15;100.00
46129;BME280;31860;45.186;5.790;2024-01-30T00:45:38;100755.06;;;9.11;100.00
46129;BME280;31860;45.186;5.790;2024-01-30T00:48:04;100756.75;;;9.09;100.00
46129;BME280;31860;45.186;5.790;2024-01-30T00:50:29;100752.44;;;9.09;100.00
46129;BME280;31860;45.186;5.790;2024-01-30T00:52:55;100748.94;;;9.09;100.00
46129;BME280;31860;45.186;5.790;2024-01-30T00:55:20;100750.63;;;9.07;100.00
46129;BME280;31860;45.186;5.790;2024-01-30T00:57:46;100743.69;;;9.07;100.00
46129;BME280;31860;45.186;5.790;2024-01-30T01:00:12;100754.09;;;9.07;100.00
46129;BME280;31860;45.186;5.790;2024-01-30T01:02:38;100749.69;;;9.05;100.00
46129;BME280;31860;45.186;5.790;2024-01-30T01:05:05;100756.59;;;9.03;100.00
46129;BME280;31860;45.186;5.790;2024-01-30T01:07:30;100755.72;;;9.04;100.00
46129;BME280;31860;45.186;5.790;2024-01-30T01:09:56;100751.22;;;8.98;100.00
46129;BME280;31860;45.186;5.790;2024-01-30T01:12:21;100753.00;;;8.99;100.00
46129;BME280;31860;45.186;5.790;2024-01-30T01:14:46;100753.81;;;8.98;100.00
46129;BME280;31860;45.186;5.790;2024-01-30T01:17:12;100757.28;;;8.97;100.00
46129;BME280;31860;45.186;5.790;2024-01-30T01:19:37;100749.47;;;8.97;100.00
46129;BME280;31860;45.186;5.790;2024-01-30T01:22:03;100752.06;;;8.97;100.00
46129;BME280;31860;45.186;5.790;2024-01-30T01:24:31;100757.38;;;9.00;100.00
46129;BME280;31860;45.186;5.790;2024-01-30T01:26:57;100742.47;;;8.96;100.00
46129;BME280;31860;45.186;5.790;2024-01-30T01:29:23;100752.06;;;8.97;100.00
46129;BME280;31860;45.186;5.790;2024-01-30T01:31:56;100752.06;;;8.97;100.00
46129;BME280;31860;45.186;5.790;2024-01-30T01:34:22;100748.53;;;8.95;100.00
46129;BME280;31860;45.186;5.790;2024-01-30T01:36:48;100748.53;;;8.95;100.00
46129;BME280;31860;45.186;5.790;2024-01-30T01:39:14;100745.03;;;8.95;100.00
46129;BME280;31860;45.186;5.790;2024-01-30T01:41:40;100740.75;;;8.97;100.00
46129;BME280;31860;45.186;5.790;2024-01-30T01:44:06;100745.06;;;8.96;100.00
46129;BME280;31860;45.186;5.790;2024-01-30T01:46:34;100747.69;;;8.96;100.00
46129;BME280;31860;45.186;5.790;2024-01-30T01:49:00;100748.53;;;8.95;100.00
46129;BME280;31860;45.186;5.790;2024-01-30T01:51:28;100745.91;;;8.95;100.00
46129;BME280;31860;45.186;5.790;2024-01-30T01:53:55;100744.13;;;8.94;100.00
46129;BME280;31860;45.186;5.790;2024-01-30T01:56:22;100745.03;;;8.95;100.00
46129;BME280;31860;45.186;5.790;2024-01-30T01:58:47;100751.88;;;8.91;100.00
46129;BME280;31860;45.186;5.790;2024-01-30T02:01:16;100752.66;;;8.89;100.00
46129;BME280;31860;45.186;5.790;2024-01-30T02:03:44;100748.22;;;8.86;100.00
46129;BME280;31860;45.186;5.790;2024-01-30T02:06:10;100748.16;;;8.85;100.00
46129;BME280;31860;45.186;5.790;2024-01-30T02:08:37;100736.88;;;8.84;100.00
46129;BME280;31860;45.186;5.790;2024-01-30T02:11:03;100736.00;;;8.84;100.00
46129;BME280;31860;45.186;5.790;2024-01-30T02:13:28;100731.56;;;8.81;100.00
46129;BME280;31860;45.186;5.790;2024-01-30T02:15:54;100740.28;;;8.82;100.00
46129;BME280;31860;45.186;5.790;2024-01-30T02:18:20;100743.69;;;8.81;100.00
46129;BME280;31860;45.186;5.790;2024-01-30T02:20:46;100737.50;;;8.77;100.00
46129;BME280;31860;45.186;5.790;2024-01-30T02:23:13;100742.88;;;8.82;100.00
46129;BME280;31860;45.186;5.790;2024-01-30T02:25:40;100739.19;;;8.75;100.00
46129;BME280;31860;45.186;5.790;2024-01-30T02:28:13;100738.34;;;8.76;100.00
46129;BME280;31860;45.186;5.790;2024-01-30T02:30:47;100741.00;;;8.78;100.00
46129;BME280;31860;45.186;5.790;2024-01-30T02:33:13;100741.03;;;8.79;100.00
46129;BME280;31860;45.186;5.790;2024-01-30T02:35:39;100745.31;;;8.77;100.00
46129;BME280;31860;45.186;5.790;2024-01-30T02:38:04;100741.00;;;8.78;100.00
46129;BME280;31860;45.186;5.790;2024-01-30T02:40:30;100740.97;;;8.76;100.00
46129;BME280;31860;45.186;5.790;2024-01-30T02:42:56;100740.03;;;8.74;100.00
46129;BME280;31860;45.186;5.790;2024-01-30T02:45:21;100741.00;;;8.78;100.00
46129;BME280;31860;45.186;5.790;2024-01-30T02:47:47;100742.63;;;8.74;100.00
46129;BME280;31860;45.186;5.790;2024-01-30T02:50:12;100743.56;;;8.76;100.00
46129;BME280;31860;45.186;5.790;2024-01-30T02:52:38;100747.00;;;8.75;100.00
46129;BME280;31860;45.186;5.790;2024-01-30T02:55:03;100745.31;;;8.77;100.00
46129;BME280;31860;45.186;5.790;2024-01-30T02:57:29;100739.38;;;8.81;100.00
46129;BME280;31860;45.186;5.790;2024-01-30T02:59:54;100739.41;;;8.83;100.00
46129;BME280;31860;45.186;5.790;2024-01-30T03:02:20;100743.66;;;8.79;100.00
46129;BME280;31860;45.186;5.790;2024-01-30T03:04:45;100738.41;;;8.78;100.00
46129;BME280;31860;45.186;5.790;2024-01-30T03:07:11;100739.25;;;8.77;100.00
46129;BME280;31860;45.186;5.790;2024-01-30T03:09:37;100739.19;;;8.75;100.00
46129;BME280;31860;45.186;5.790;2024-01-30T03:12:03;100739.97;;;8.73;100.00
46129;BME280;31860;45.186;5.790;2024-01-30T03:14:31;100745.97;;;8.70;100.00
46129;BME280;31860;45.186;5.790;2024-01-30T03:16:57;100749.41;;;8.69;100.00
46129;BME280;31860;45.186;5.790;2024-01-30T03:19:22;100744.94;;;8.65;100.00
46129;BME280;31860;45.186;5.790;2024-01-30T03:21:47;100745.75;;;8.64;100.00
46129;BME280;31860;45.186;5.790;2024-01-30T03:24:13;100745.69;;;8.61;100.00
46129;BME280;31860;45.186;5.790;2024-01-30T03:26:38;100743.13;;;8.63;100.00
46129;BME280;31860;45.186;5.790;2024-01-30T03:29:03;100745.75;;;8.64;100.00
46129;BME280;31860;45.186;5.790;2024-01-30T03:31:29;100741.50;;;8.66;100.00
46129;BME280;31860;45.186;5.790;2024-01-30T03:33:54;100747.63;;;8.68;100.00
46129;BME280;31860;45.186;5.790;2024-01-30T03:36:19;100749.41;;;8.69;100.00
46129;BME280;31860;45.186;5.790;2024-01-30T03:38:45;100745.06;;;8.70;100.00
46129;BME280;31860;45.186;5.790;2024-01-30T03:41:10;100742.22;;;8.62;100.00
46129;BME280;31860;45.186;5.790;2024-01-30T03:43:36;100745.72;;;8.63;100.00
46129;BME280;31860;45.186;5.790;2024-01-30T03:46:02;100747.53;;;8.65;100.00
46129;BME280;31860;45.186;5.790;2024-01-30T03:48:28;100743.16;;;8.64;100.00
46129;BME280;31860;45.186;5.790;2024-01-30T03:50:54;100740.50;;;8.63;100.00
46129;BME280;31860;45.186;5.790;2024-01-30T03:53:19;100744.06;;;8.65;100.00
46129;BME280;31860;45.186;5.790;2024-01-30T03:55:45;100737.94;;;8.64;100.00
46129;BME280;31860;45.186;5.790;2024-01-30T03:58:10;100743.16;;;8.64;100.00
46129;BME280;31860;45.186;5.790;2024-01-30T04:00:35;100747.28;;;8.57;100.00
46129;BME280;31860;45.186;5.790;2024-01-30T04:03:01;100744.56;;;8.54;100.00
46129;BME280;31860;45.186;5.790;2024-01-30T04:05:26;100754.22;;;8.57;100.00
46129;BME280;31860;45.186;5.790;2024-01-30T04:07:51;100749.00;;;8.57;100.00
46129;BME280;31860;45.186;5.790;2024-01-30T04:10:17;100753.31;;;8.56;100.00
46129;BME280;31860;45.186;5.790;2024-01-30T04:12:42;100748.91;;;8.54;100.00
46129;BME280;31860;45.186;5.790;2024-01-30T04:15:08;100753.19;;;8.52;100.00
46129;BME280;31860;45.186;5.790;2024-01-30T04:17:33;100750.47;;;8.49;100.00
46129;BME280;31860;45.186;5.790;2024-01-30T04:19:58;100749.47;;;8.45;100.00
46129;BME280;31860;45.186;5.790;2024-01-30T04:22:24;100752.03;;;8.44;100.00
46129;BME280;31860;45.186;5.790;2024-01-30T04:24:49;100753.78;;;8.45;100.00
46129;BME280;31860;45.186;5.790;2024-01-30T04:27:14;100760.78;;;8.46;100.00
46129;BME280;31860;45.186;5.790;2024-01-30T04:29:40;100758.97;;;8.43;100.00
46129;BME280;31860;45.186;5.790;2024-01-30T04:32:05;100764.13;;;8.42;100.00
46129;BME280;31860;45.186;5.790;2024-01-30T04:34:31;100757.13;;;8.41;100.00
46129;BME280;31860;45.186;5.790;2024-01-30T04:36:57;100758.03;;;8.41;100.00
46129;BME280;31860;45.186;5.790;2024-01-30T04:39:22;100757.88;;;8.37;100.00
46129;BME280;31860;45.186;5.790;2024-01-30T04:41:48;100756.88;;;8.33;100.00
46129;BME280;31860;45.186;5.790;2024-01-30T04:44:13;100757.72;;;8.32;100.00
46129;BME280;31860;45.186;5.790;2024-01-30T04:46:39;100762.91;;;8.32;100.00
46129;BME280;31860;45.186;5.790;2024-01-30T04:49:04;100754.25;;;8.33;100.00
46129;BME280;31860;45.186;5.790;2024-01-30T04:51:30;100764.03;;;8.39;100.00
46129;BME280;31860;45.186;5.790;2024-01-30T04:53:55;100762.28;;;8.39;100.00
46129;BME280;31860;45.186;5.790;2024-01-30T04:56:20;100755.38;;;8.40;100.00
46129;BME280;31860;45.186;5.790;2024-01-30T04:58:46;100764.13;;;8.42;100.00
46129;BME280;31860;45.186;5.790;2024-01-30T05:01:17;100773.66;;;8.41;100.00
46129;BME280;31860;45.186;5.790;2024-01-30T05:03:43;100767.50;;;8.39;100.00
46129;BME280;31860;45.186;5.790;2024-01-30T05:06:08;100760.50;;;8.37;100.00
46129;BME280;31860;45.186;5.790;2024-01-30T05:08:34;100769.13;;;8.36;100.00
46129;BME280;31860;45.186;5.790;2024-01-30T05:11:05;100772.47;;;8.33;100.00
46129;BME280;31860;45.186;5.790;2024-01-30T05:13:31;100771.44;;;8.28;100.00
46129;BME280;31860;45.186;5.790;2024-01-30T05:15:56;100779.25;;;8.28;100.00
46129;BME280;31860;45.186;5.790;2024-01-30T05:18:22;100773.13;;;8.26;100.00
46129;BME280;31860;45.186;5.790;2024-01-30T05:20:50;100779.00;;;8.22;100.00
46129;BME280;31860;45.186;5.790;2024-01-30T05:23:15;100785.88;;;8.20;100.00
46129;BME280;31860;45.186;5.790;2024-01-30T05:25:40;100784.03;;;8.16;100.00
46129;BME280;31860;45.186;5.790;2024-01-30T05:28:06;100787.28;;;8.11;100.00
46129;BME280;31860;45.186;5.790;2024-01-30T05:30:31;100786.44;;;8.12;100.00
46129;BME280;31860;45.186;5.790;2024-01-30T05:32:56;100777.72;;;8.10;100.00
46129;BME280;31860;45.186;5.790;2024-01-30T05:35:22;100783.69;;;8.07;100.00
46129;BME280;31860;45.186;5.790;2024-01-30T05:37:50;100789.59;;;8.03;100.00
46129;BME280;31860;45.186;5.790;2024-01-30T05:40:16;100787.06;;;8.05;100.00
46129;BME280;31860;45.186;5.790;2024-01-30T05:42:41;100801.78;;;8.04;100.00
46129;BME280;31860;45.186;5.790;2024-01-30T05:45:07;100790.50;;;8.04;100.00
46129;BME280;31860;45.186;5.790;2024-01-30T05:47:33;100790.50;;;8.04;100.00
46129;BME280;31860;45.186;5.790;2024-01-30T05:49:59;100802.56;;;8.02;100.00
46129;BME280;31860;45.186;5.790;2024-01-30T05:52:24;100798.06;;;7.98;100.00
46129;BME280;31860;45.186;5.790;2024-01-30T05:54:49;100785.16;;;7.99;100.00
46129;BME280;31860;45.186;5.790;2024-01-30T05:57:15;100795.69;;;8.04;100.00
46129;BME280;31860;45.186;5.790;2024-01-30T05:59:40;100799.16;;;8.03;100.00
46129;BME280;31860;45.186;5.790;2024-01-30T06:02:05;100800.84;;;8.02;100.00
46129;BME280;31860;45.186;5.790;2024-01-30T06:04:31;100801.63;;;8.00;100.00
46129;BME280;31860;45.186;5.790;2024-01-30T06:06:56;100803.41;;;8.01;100.00
46129;BME280;31860;45.186;5.790;2024-01-30T06:09:21;100811.06;;;7.98;100.00
46129;BME280;31860;45.186;5.790;2024-01-30T06:11:47;100811.88;;;7.95;100.00
46129;BME280;31860;45.186;5.790;2024-01-30T06:14:12;100812.63;;;7.93;100.00
46129;BME280;31860;45.186;5.790;2024-01-30T06:16:38;100817.75;;;7.90;100.00
46129;BME280;31860;45.186;5.790;2024-01-30T06:19:03;100812.53;;;7.90;100.00
46129;BME280;31860;45.186;5.790;2024-01-30T06:21:28;100813.31;;;7.87;100.00
46129;BME280;31860;45.186;5.790;2024-01-30T06:23:54;100824.56;;;7.86;100.00
46129;BME280;31860;45.186;5.790;2024-01-30T06:26:19;100820.34;;;7.90;100.00
46129;BME280;31860;45.186;5.790;2024-01-30T06:28:44;100823.81;;;7.90;100.00
46129;BME280;31860;45.186;5.790;2024-01-30T06:31:10;100820.34;;;7.90;100.00
46129;BME280;31860;45.186;5.790;2024-01-30T06:33:35;100824.84;;;7.94;100.00
46129;BME280;31860;45.186;5.790;2024-01-30T06:36:00;100826.53;;;7.93;100.00
46129;BME280;31860;45.186;5.790;2024-01-30T06:38:26;100828.25;;;7.93;100.00
46129;BME280;31860;45.186;5.790;2024-01-30T06:40:51;100828.16;;;7.90;100.00
46129;BME280;31860;45.186;5.790;2024-01-30T06:43:17;100835.94;;;7.90;100.00
46129;BME280;31860;45.186;5.790;2024-01-30T06:45:42;100838.41;;;7.87;100.00
46129;BME280;31860;45.186;5.790;2024-01-30T06:48:08;100832.22;;;7.83;100.00
46129;BME280;31860;45.186;5.790;2024-01-30T06:50:33;100846.00;;;7.81;100.00
46129;BME280;31860;45.186;5.790;2024-01-30T06:52:59;100842.56;;;7.82;100.00
46129;BME280;31860;45.186;5.790;2024-01-30T06:55:24;100844.47;;;7.86;100.00
46129;BME280;31860;45.186;5.790;2024-01-30T06:57:49;100857.53;;;7.87;100.00
46129;BME280;31860;45.186;5.790;2024-01-30T07:00:15;100863.50;;;7.85;100.00
46129;BME280;31860;45.186;5.790;2024-01-30T07:02:41;100860.78;;;7.82;100.00
46129;BME280;31860;45.186;5.790;2024-01-30T07:05:07;100852.13;;;7.83;100.00
46129;BME280;31860;45.186;5.790;2024-01-30T07:07:32;100854.59;;;7.78;100.00
46129;BME280;31860;45.186;5.790;2024-01-30T07:09:58;100863.34;;;7.80;100.00
46129;BME280;31860;45.186;5.790;2024-01-30T07:12:23;100865.81;;;7.77;100.00
46129;BME280;31860;45.186;5.790;2024-01-30T07:14:50;100862.09;;;7.71;100.00
46129;BME280;31860;45.186;5.790;2024-01-30T07:17:16;100865.50;;;7.69;100.00
46129;BME280;31860;45.186;5.790;2024-01-30T07:19:41;100872.44;;;7.69;100.00
46129;BME280;31860;45.186;5.790;2024-01-30T07:22:07;100865.50;;;7.69;100.00
46129;BME280;31860;45.186;5.790;2024-01-30T07:24:33;100868.94;;;7.68;100.00
46129;BME280;31860;45.186;5.790;2024-01-30T07:26:58;100877.69;;;7.71;100.00
46129;BME280;31860;45.186;5.790;2024-01-30T07:29:23;100878.50;;;7.69;100.00
46129;BME280;31860;45.186;5.790;2024-01-30T07:31:49;100884.66;;;7.72;100.00
46129;BME280;31860;45.186;5.790;2024-01-30T07:34:14;100876.91;;;7.73;100.00
46129;BME280;31860;45.186;5.790;2024-01-30T07:36:39;100879.47;;;7.72;100.00
46129;BME280;31860;45.186;5.790;2024-01-30T07:39:05;100877.00;;;7.75;100.00
46129;BME280;31860;45.186;5.790;2024-01-30T07:41:30;100895.31;;;7.78;100.00
46129;BME280;31860;45.186;5.790;2024-01-30T07:43:55;100887.50;;;7.78;100.00
46129;BME280;31860;45.186;5.790;2024-01-30T07:46:20;100897.09;;;7.79;100.00
46129;BME280;31860;45.186;5.790;2024-01-30T07:48:46;100905.94;;;7.84;100.00
46129;BME280;31860;45.186;5.790;2024-01-30T07:51:11;100909.50;;;7.86;100.00
46129;BME280;31860;45.186;5.790;2024-01-30T07:53:36;100910.56;;;7.91;100.00
46129;BME280;31860;45.186;5.790;2024-01-30T07:56:02;100909.75;;;7.92;100.00
46129;BME280;31860;45.186;5.790;2024-01-30T07:58:27;100916.75;;;7.94;100.00
46129;BME280;31860;45.186;5.790;2024-01-30T08:00:53;100920.25;;;7.95;100.00
46129;BME280;31860;45.186;5.790;2024-01-30T08:03:18;100908.28;;;8.00;100.00
46129;BME280;31860;45.186;5.790;2024-01-30T08:05:44;100911.06;;;8.04;100.00
46129;BME280;31860;45.186;5.790;2024-01-30T08:08:09;100917.34;;;8.09;100.00
46129;BME280;31860;45.186;5.790;2024-01-30T08:10:35;100919.97;;;8.11;100.00
46129;BME280;31860;45.186;5.790;2024-01-30T08:13:01;100919.94;;;8.09;100.00
46129;BME280;31860;45.186;5.790;2024-01-30T08:15:27;100919.00;;;8.07;100.00
46129;BME280;31860;45.186;5.790;2024-01-30T08:17:52;100919.06;;;8.09;100.00
46129;BME280;31860;45.186;5.790;2024-01-30T08:20:23;100914.78;;;8.11;100.00
46129;BME280;31860;45.186;5.790;2024-01-30T08:22:48;100925.19;;;8.11;100.00
46129;BME280;31860;45.186;5.790;2024-01-30T08:25:13;100918.31;;;8.13;100.00
46129;BME280;31860;45.186;5.790;2024-01-30T08:27:39;100911.47;;;8.15;100.00
46129;BME280;31860;45.186;5.790;2024-01-30T08:30:06;100914.25;;;8.19;100.00
46129;BME280;31860;45.186;5.790;2024-01-30T08:32:31;100914.44;;;8.24;100.00
46129;BME280;31860;45.186;5.790;2024-01-30T08:34:57;100909.38;;;8.27;100.00
46129;BME280;31860;45.186;5.790;2024-01-30T08:37:23;100912.00;;;8.28;100.00
46129;BME280;31860;45.186;5.790;2024-01-30T08:39:48;100910.34;;;8.30;100.00
46129;BME280;31860;45.186;5.790;2024-01-30T08:42:13;100907.94;;;8.35;100.00
46129;BME280;31860;45.186;5.790;2024-01-30T08:44:39;100906.38;;;8.40;100.00
46129;BME280;31860;45.186;5.790;2024-01-30T08:47:04;100910.09;;;8.46;100.00
46129;BME280;31860;45.186;5.790;2024-01-30T08:49:29;100910.19;;;8.49;100.00
46129;BME280;31860;45.186;5.790;2024-01-30T08:51:55;100906.81;;;8.52;100.00
46129;BME280;31860;45.186;5.790;2024-01-30T08:54:20;100913.06;;;8.57;100.00
46129;BME280;31860;45.186;5.790;2024-01-30T08:56:46;100906.25;;;8.60;100.00
46129;BME280;31860;45.186;5.790;2024-01-30T08:59:11;100906.34;;;8.63;100.00
46129;BME280;31860;45.186;5.790;2024-01-30T09:01:36;100903.88;;;8.67;100.00
46129;BME280;31860;45.186;5.790;2024-01-30T09:04:02;100902.34;;;8.73;100.00
46129;BME280;31860;45.186;5.790;2024-01-30T09:06:27;100903.97;;;8.70;100.00
46129;BME280;31860;45.186;5.790;2024-01-30T09:08:54;100897.09;;;8.72;100.00
46129;BME280;31860;45.186;5.790;2024-01-30T09:11:19;100908.41;;;8.72;100.00
46129;BME280;31860;45.186;5.790;2024-01-30T09:13:44;100902.44;;;8.75;100.00
46129;BME280;31860;45.186;5.790;2024-01-30T09:16:10;100905.13;;;8.78;100.00
46129;BME280;31860;45.186;5.790;2024-01-30T09:18:35;100902.56;;;8.79;100.00
46129;BME280;31860;45.186;5.790;2024-01-30T09:21:00;100904.28;;;8.79;100.00
46129;BME280;31860;45.186;5.790;2024-01-30T09:23:27;100901.84;;;8.83;100.00
46129;BME280;31860;45.186;5.790;2024-01-30T09:25:53;100904.44;;;8.83;100.00
46129;BME280;31860;45.186;5.790;2024-01-30T09:28:18;100907.00;;;8.82;100.00
46129;BME280;31860;45.186;5.790;2024-01-30T09:30:44;100906.28;;;8.86;100.00
46129;BME280;31860;45.186;5.790;2024-01-30T09:33:09;100900.25;;;8.88;100.00
46129;BME280;31860;45.186;5.790;2024-01-30T09:35:38;100892.56;;;8.91;100.00
46129;BME280;31860;45.186;5.790;2024-01-30T09:38:03;100902.41;;;9.00;100.00
46129;BME280;31860;45.186;5.790;2024-01-30T09:40:29;100899.94;;;9.03;100.00
46129;BME280;31860;45.186;5.790;2024-01-30T09:42:54;100901.84;;;9.08;100.00
46129;BME280;31860;45.186;5.790;2024-01-30T09:45:24;100890.81;;;9.17;100.00
46129;BME280;31860;45.186;5.790;2024-01-30T09:47:50;100894.53;;;9.23;100.00
46129;BME280;31860;45.186;5.790;2024-01-30T09:50:16;100894.88;;;9.34;100.00
46129;BME280;31860;45.186;5.790;2024-01-30T09:52:43;100898.56;;;9.40;100.00
46129;BME280;31860;45.186;5.790;2024-01-30T09:55:09;100897.06;;;9.48;100.00
46129;BME280;31860;45.186;5.790;2024-01-30T09:57:35;100899.06;;;9.55;100.00
46129;BME280;31860;45.186;5.790;2024-01-30T10:00:01;100902.72;;;9.62;100.00
46129;BME280;31860;45.186;5.790;2024-01-30T10:02:27;100898.59;;;9.69;100.00
46129;BME280;31860;45.186;5.790;2024-01-30T10:04:53;100903.16;;;9.76;100.00
46129;BME280;31860;45.186;5.790;2024-01-30T10:07:19;100906.84;;;9.82;100.00
46129;BME280;31860;45.186;5.790;2024-01-30T10:09:44;100906.19;;;9.89;100.00
46129;BME280;31860;45.186;5.790;2024-01-30T10:12:10;100906.38;;;9.95;100.00
46129;BME280;31860;45.186;5.790;2024-01-30T10:14:39;100903.06;;;10.01;100.00
46129;BME280;31860;45.186;5.790;2024-01-30T10:17:06;100893.72;;;10.09;100.00
46129;BME280;31860;45.186;5.790;2024-01-30T10:19:32;100893.25;;;10.22;100.00
46129;BME280;31860;45.186;5.790;2024-01-30T10:21:59;100901.47;;;10.34;100.00
46129;BME280;31860;45.186;5.790;2024-01-30T10:24:26;100896.50;;;10.43;100.00
46129;BME280;31860;45.186;5.790;2024-01-30T10:26:51;100897.66;;;10.54;100.00
46129;BME280;31860;45.186;5.790;2024-01-30T10:29:17;100896.25;;;10.65;100.00
46129;BME280;31860;45.186;5.790;2024-01-30T10:31:42;100891.09;;;10.68;100.00
46129;BME280;31860;45.186;5.790;2024-01-30T10:34:08;100893.78;;;10.71;100.00
46129;BME280;31860;45.186;5.790;2024-01-30T10:36:39;100890.50;;;10.78;100.00
46129;BME280;31860;45.186;5.790;2024-01-30T10:39:07;100892.56;;;10.90;100.00
46129;BME280;31860;45.186;5.790;2024-01-30T10:41:43;100892.28;;;11.13;100.00
46129;BME280;31860;45.186;5.790;2024-01-30T10:44:10;100888.56;;;11.39;100.00
46129;BME280;31860;45.186;5.790;2024-01-30T10:46:38;100890.19;;;11.69;100.00
46129;BME280;31860;45.186;5.790;2024-01-30T10:49:04;100885.56;;;11.97;100.00
46129;BME280;31860;45.186;5.790;2024-01-30T10:51:31;100881.88;;;12.28;100.00
46129;BME280;31860;45.186;5.790;2024-01-30T10:53:57;100884.25;;;12.59;100.00
46129;BME280;31860;45.186;5.790;2024-01-30T10:56:23;100872.53;;;12.87;100.00
46129;BME280;31860;45.186;5.790;2024-01-30T10:58:51;100861.69;;;13.16;100.00
46129;BME280;31860;45.186;5.790;2024-01-30T11:01:21;100869.53;;;13.13;100.00
46129;BME280;31860;45.186;5.790;2024-01-30T11:03:53;100863.19;;;13.02;100.00
46129;BME280;31860;45.186;5.790;2024-01-30T11:06:22;100861.28;;;12.94;100.00
46129;BME280;31860;45.186;5.790;2024-01-30T11:09:01;100865.63;;;12.92;100.00
46129;BME280;31860;45.186;5.790;2024-01-30T11:11:29;100861.25;;;12.92;100.00
46129;BME280;31860;45.186;5.790;2024-01-30T11:13:54;100858.63;;;12.92;100.00
46129;BME280;31860;45.186;5.790;2024-01-30T11:16:19;100852.56;;;12.93;100.00
46129;BME280;31860;45.186;5.790;2024-01-30T11:18:50;100842.81;;;12.88;100.00
46129;BME280;31860;45.186;5.790;2024-01-30T11:21:16;100848.03;;;12.86;100.00
46129;BME280;31860;45.186;5.790;2024-01-30T11:23:42;100853.28;;;12.86;100.00
46129;BME280;31860;45.186;5.790;2024-01-30T11:26:10;100847.09;;;12.83;100.00
46129;BME280;31860;45.186;5.790;2024-01-30T11:28:37;100848.81;;;12.82;100.00
46129;BME280;31860;45.186;5.790;2024-01-30T11:31:06;100840.91;;;12.78;100.00
46129;BME280;31860;45.186;5.790;2024-01-30T11:33:32;100838.28;;;12.78;100.00
46129;BME280;31860;45.186;5.790;2024-01-30T11:35:59;100837.47;;;12.82;100.00
46129;BME280;31860;45.186;5.790;2024-01-30T11:38:26;100831.34;;;12.81;100.00
46129;BME280;31860;45.186;5.790;2024-01-30T11:40:53;100831.34;;;12.81;100.00
46129;BME280;31860;45.186;5.790;2024-01-30T11:43:19;100827.78;;;12.76;100.00
46129;BME280;31860;45.186;5.790;2024-01-30T11:45:45;100832.09;;;12.74;100.00
46129;BME280;31860;45.186;5.790;2024-01-30T11:48:12;100832.97;;;12.75;100.00
46129;BME280;31860;45.186;5.790;2024-01-30T11:50:38;100826.00;;;12.77;100.00
46129;BME280;31860;45.186;5.790;2024-01-30T11:53:04;100816.44;;;12.80;100.00
46129;BME280;31860;45.186;5.790;2024-01-30T11:55:30;100810.31;;;12.78;100.00
46129;BME280;31860;45.186;5.790;2024-01-30T11:57:59;100807.88;;;12.89;100.00
46129;BME280;31860;45.186;5.790;2024-01-30T12:00:25;100802.75;;;12.96;100.00
46129;BME280;31860;45.186;5.790;2024-01-30T12:02:52;100805.56;;;13.05;100.00
46129;BME280;31860;45.186;5.790;2024-01-30T12:05:21;100802.25;;;13.18;100.00
46129;BME280;31860;45.186;5.790;2024-01-30T12:07:47;100803.41;;;13.36;100.00
46129;BME280;31860;45.186;5.790;2024-01-30T12:10:13;100796.56;;;13.48;100.00
46129;BME280;31860;45.186;5.790;2024-01-30T12:12:39;100785.38;;;13.60;100.00
46129;BME280;31860;45.186;5.790;2024-01-30T12:15:06;100787.34;;;13.76;100.00
46129;BME280;31860;45.186;5.790;2024-01-30T12:17:33;100788.38;;;13.88;100.00
46129;BME280;31860;45.186;5.790;2024-01-30T12:20:10;100784.13;;;14.01;100.00
46129;BME280;31860;45.186;5.790;2024-01-30T12:22:47;100789.53;;;14.13;100.00
46129;BME280;31860;45.186;5.790;2024-01-30T12:25:15;100781.88;;;14.28;100.00
46129;BME280;31860;45.186;5.790;2024-01-30T12:27:45;100775.94;;;14.47;100.00
46129;BME280;31860;45.186;5.790;2024-01-30T12:30:14;100771.72;;;14.69;100.00
46129;BME280;31860;45.186;5.790;2024-01-30T12:32:41;100780.72;;;14.90;100.00
46129;BME280;31860;45.186;5.790;2024-01-30T12:35:10;100774.72;;;15.12;100.00
46129;BME280;31860;45.186;5.790;2024-01-30T12:37:36;100770.41;;;15.20;100.00
46129;BME280;31860;45.186;5.790;2024-01-30T12:40:02;100769.53;;;15.21;100.00
46129;BME280;31860;45.186;5.790;2024-01-30T12:42:27;100766.03;;;15.23;100.00